Time;durP1;ratioP1;P1;durP2;ratioP2;P2;SDS_P1;SDS_P2;PMS_P1;PMS_P2;Temp;Humidity;BMP_temperature;BMP_pressure;BME280_temperature;BME280_humidity;BME280_pressure;Samples;Min_cycle;Max_cycle;Signal;HPM_P1;HPM_P2
2023/03/18 00:01:15;;;;;;;18.20;6.75;;;11.60;99.90;;;;;;5063432;28;20017;-71
2023/03/18 00:03:41;;;;;;;11.32;6.30;;;11.60;99.90;;;;;;5063558;28;20500;-72
2023/03/18 00:06:10;;;;;;;12.27;6.68;;;11.60;99.90;;;;;;5064719;28;20036;-72
2023/03/18 00:08:38;;;;;;;11.05;6.55;;;11.70;99.90;;;;;;5064113;28;20048;-72
2023/03/18 00:11:04;;;;;;;13.82;6.60;;;11.70;99.90;;;;;;5064722;28;20051;-72
2023/03/18 00:13:32;;;;;;;11.40;5.70;;;11.70;99.90;;;;;;5064587;28;20091;-73
2023/03/18 00:15:58;;;;;;;12.57;6.05;;;11.70;99.90;;;;;;5063101;28;20072;-71
2023/03/18 00:18:24;;;;;;;15.15;6.10;;;11.80;99.90;;;;;;5063141;28;20047;-71
2023/03/18 00:20:50;;;;;;;14.68;5.80;;;11.80;99.90;;;;;;5063276;28;20518;-72
2023/03/18 00:23:16;;;;;;;17.73;5.72;;;11.80;99.90;;;;;;5064553;28;20055;-71
2023/03/18 00:25:45;;;;;;;11.80;5.75;;;11.80;99.90;;;;;;5061268;28;20049;-72
2023/03/18 00:28:10;;;;;;;13.02;5.90;;;12.00;99.90;;;;;;5061492;28;20047;-72
2023/03/18 00:30:41;;;;;;;10.00;5.53;;;11.90;99.90;;;;;;5062718;28;20084;-71
2023/03/18 00:33:08;;;;;;;11.90;5.75;;;12.00;99.90;;;;;;5064286;28;20051;-72
2023/03/18 00:35:35;;;;;;;11.88;6.10;;;12.00;99.90;;;;;;5064198;28;20051;-71
2023/03/18 00:38:02;;;;;;;12.40;6.10;;;12.00;99.90;;;;;;5063441;28;20025;-72
2023/03/18 00:40:41;;;;;;;11.43;5.90;;;12.00;99.90;;;;;;5064147;28;20509;-71
2023/03/18 00:43:08;;;;;;;12.65;6.15;;;11.90;99.90;;;;;;5063019;28;20025;-72
2023/03/18 00:45:39;;;;;;;13.73;6.05;;;11.90;99.90;;;;;;5063904;28;20029;-72
2023/03/18 00:48:06;;;;;;;13.63;6.30;;;11.80;99.90;;;;;;5063727;28;20033;-70
2023/03/18 00:50:33;;;;;;;16.10;6.10;;;11.70;99.90;;;;;;5062295;28;20064;-72
2023/03/18 00:52:59;;;;;;;10.95;5.78;;;11.60;99.90;;;;;;5064071;28;20040;-72
2023/03/18 00:55:26;;;;;;;9.55;5.40;;;11.50;99.90;;;;;;5062648;28;20050;-71
2023/03/18 00:57:52;;;;;;;11.23;5.78;;;11.50;99.90;;;;;;5062700;28;20088;-72
2023/03/18 01:00:18;;;;;;;13.98;6.00;;;11.50;99.90;;;;;;5062451;28;20161;-71
2023/03/18 01:02:44;;;;;;;10.95;6.03;;;11.40;99.90;;;;;;5062240;28;20036;-71
2023/03/18 01:05:14;;;;;;;12.45;6.35;;;11.40;99.90;;;;;;5063444;28;20021;-71
2023/03/18 01:07:40;;;;;;;13.75;6.00;;;11.40;99.90;;;;;;5061047;28;20021;-71
2023/03/18 01:10:06;;;;;;;11.73;5.78;;;11.40;99.90;;;;;;5062731;28;20056;-72
2023/03/18 01:12:32;;;;;;;22.90;5.85;;;11.40;99.90;;;;;;5061330;28;20033;-72
2023/03/18 01:14:58;;;;;;;11.00;5.65;;;11.40;99.90;;;;;;5063843;28;20029;-72
2023/03/18 01:17:25;;;;;;;12.25;5.90;;;11.40;99.90;;;;;;5062970;28;20029;-71
2023/03/18 01:19:50;;;;;;;12.38;6.55;;;11.40;99.90;;;;;;5062381;28;20021;-71
2023/03/18 01:22:17;;;;;;;17.05;5.90;;;11.40;99.90;;;;;;5061743;28;20039;-72
2023/03/18 01:24:43;;;;;;;15.82;6.20;;;11.40;99.90;;;;;;5062940;28;20461;-70
2023/03/18 01:27:10;;;;;;;11.70;6.10;;;11.30;99.90;;;;;;5063176;28;20029;-72
2023/03/18 01:29:36;;;;;;;12.35;6.03;;;11.30;99.90;;;;;;5060368;28;20492;-72
2023/03/18 01:32:02;;;;;;;16.23;6.13;;;11.30;99.90;;;;;;5060058;28;20083;-71
2023/03/18 01:34:28;;;;;;;14.88;6.70;;;11.20;99.90;;;;;;5059704;28;20032;-71
2023/03/18 01:36:54;;;;;;;12.18;6.45;;;11.20;99.90;;;;;;5062767;28;20029;-70
2023/03/18 01:39:22;;;;;;;14.63;6.65;;;11.10;99.90;;;;;;5063221;28;21689;-71
2023/03/18 01:41:48;;;;;;;14.63;6.72;;;11.10;99.90;;;;;;5062718;28;20017;-71
2023/03/18 01:44:18;;;;;;;12.77;6.32;;;11.00;99.90;;;;;;5063183;28;20059;-72
2023/03/18 01:46:51;;;;;;;15.65;6.90;;;11.00;99.90;;;;;;5062802;28;20033;-72
2023/03/18 01:49:55;;;;;;;12.90;6.80;;;11.00;99.90;;;;;;5062437;28;20060;-72
2023/03/18 01:52:27;;;;;;;15.05;6.85;;;10.90;99.90;;;;;;5045011;28;20033;-72
2023/03/18 01:55:03;;;;;;;16.60;6.13;;;10.90;99.90;;;;;;5061104;28;20119;-72
2023/03/18 01:57:31;;;;;;;12.52;6.40;;;10.90;99.90;;;;;;5062220;28;20033;-71
2023/03/18 01:59:57;;;;;;;13.57;6.68;;;10.90;99.90;;;;;;5062300;28;20032;-71
2023/03/18 02:02:25;;;;;;;12.52;6.68;;;10.90;99.90;;;;;;5061434;28;20040;-72
2023/03/18 02:04:53;;;;;;;15.13;6.63;;;10.90;99.90;;;;;;5060782;28;20115;-72
2023/03/18 02:07:26;;;;;;;11.48;6.78;;;10.90;99.90;;;;;;5062092;28;20017;-71
2023/03/18 02:09:53;;;;;;;12.68;6.80;;;10.90;99.90;;;;;;5061952;28;20021;-72
2023/03/18 02:12:26;;;;;;;19.73;7.57;;;10.90;99.90;;;;;;5062134;28;20044;-72
2023/03/18 02:14:52;;;;;;;13.85;6.80;;;10.80;99.90;;;;;;5058519;28;20517;-70
2023/03/18 02:17:23;;;;;;;13.48;6.30;;;10.80;99.90;;;;;;5060976;28;20029;-72
2023/03/18 02:20:07;;;;;;;12.63;6.88;;;10.80;99.90;;;;;;5062305;28;20111;-72
2023/03/18 02:22:42;;;;;;;10.75;6.18;;;10.80;99.90;;;;;;5062057;28;20017;-68
2023/03/18 02:25:10;;;;;;;14.52;6.78;;;10.80;99.90;;;;;;5060748;28;20056;-71
2023/03/18 02:27:43;;;;;;;11.18;6.32;;;10.80;99.90;;;;;;5061815;28;20056;-70
2023/03/18 02:30:22;;;;;;;14.35;7.03;;;10.80;99.90;;;;;;5062206;28;20025;-69
2023/03/18 02:32:50;;;;;;;16.75;7.40;;;10.80;99.90;;;;;;5060597;28;20032;-71
2023/03/18 02:35:16;;;;;;;13.10;7.10;;;10.70;99.90;;;;;;5061896;28;20029;-70
2023/03/18 02:37:41;;;;;;;15.38;7.32;;;10.70;99.90;;;;;;5061458;28;20079;-70
2023/03/18 02:40:15;;;;;;;13.43;7.22;;;10.70;99.90;;;;;;5060653;28;20504;-71
2023/03/18 02:42:41;;;;;;;;;;;10.70;99.90;;;;;;5062094;28;20029;-70
2023/03/18 02:45:17;;;;;;;17.50;7.10;;;10.70;99.90;;;;;;5061944;28;19911;-72
2023/03/18 02:47:43;;;;;;;11.88;6.32;;;10.70;99.90;;;;;;5060140;28;20084;-70
2023/03/18 02:50:09;;;;;;;18.35;7.10;;;10.70;99.90;;;;;;5061178;28;20036;-71
2023/03/18 02:52:35;;;;;;;16.58;6.85;;;10.70;99.90;;;;;;5060482;28;20036;-72
2023/03/18 02:55:00;;;;;;;16.20;7.70;;;10.70;99.90;;;;;;5061516;28;20029;-70
2023/03/18 02:57:26;;;;;;;12.25;6.82;;;10.60;99.90;;;;;;5061946;28;20044;-72
2023/03/18 02:59:51;;;;;;;10.27;6.32;;;10.60;99.90;;;;;;5061692;28;20100;-71
2023/03/18 03:02:17;;;;;;;12.43;6.10;;;10.60;99.90;;;;;;5061781;28;20076;-71
2023/03/18 03:04:43;;;;;;;10.10;6.40;;;10.60;99.90;;;;;;5061605;28;20032;-70
2023/03/18 03:07:08;;;;;;;12.05;6.25;;;10.50;99.90;;;;;;5060239;28;20471;-71
2023/03/18 03:09:34;;;;;;;13.18;6.35;;;10.50;99.90;;;;;;5059434;28;20417;-72
2023/03/18 03:11:59;;;;;;;16.45;6.82;;;10.50;99.90;;;;;;5060395;28;20053;-71
2023/03/18 03:14:25;;;;;;;12.95;5.88;;;10.40;99.90;;;;;;5061859;28;20021;-71
2023/03/18 03:16:51;;;;;;;16.02;6.38;;;10.40;99.90;;;;;;5061549;28;20036;-70
2023/03/18 03:19:17;;;;;;;16.42;6.97;;;10.40;99.90;;;;;;5061420;28;20459;-70
2023/03/18 03:21:42;;;;;;;18.60;7.07;;;10.40;99.90;;;;;;5061421;28;20025;-72
2023/03/18 03:24:08;;;;;;;20.02;7.28;;;10.40;99.90;;;;;;5061614;28;20044;-70
2023/03/18 03:26:34;;;;;;;14.93;7.32;;;10.40;99.90;;;;;;5063667;28;20110;-70
2023/03/18 03:29:03;;;;;;;18.23;7.32;;;10.40;99.90;;;;;;5065353;28;20033;-71
2023/03/18 03:31:29;;;;;;;17.88;7.57;;;10.40;99.90;;;;;;5065307;28;20017;-70
2023/03/18 03:33:55;;;;;;;16.02;7.05;;;10.40;99.90;;;;;;5064023;28;20113;-72
2023/03/18 03:36:20;;;;;;;15.27;7.97;;;10.40;99.90;;;;;;5062753;28;20029;-72
2023/03/18 03:38:46;;;;;;;16.05;7.68;;;10.40;99.90;;;;;;5065100;28;20021;-71
2023/03/18 03:41:14;;;;;;;16.13;7.60;;;10.40;99.90;;;;;;5065212;28;20081;-70
2023/03/18 03:43:40;;;;;;;18.90;7.72;;;10.50;99.90;;;;;;5063509;28;20036;-71
2023/03/18 03:46:08;;;;;;;12.75;7.38;;;10.50;99.90;;;;;;5064983;28;20036;-72
2023/03/18 03:48:34;;;;;;;13.25;7.38;;;10.50;99.90;;;;;;5064870;28;20029;-70
2023/03/18 03:51:01;;;;;;;16.35;7.57;;;10.50;99.90;;;;;;5065163;28;20043;-72
2023/03/18 03:53:27;;;;;;;17.98;7.55;;;10.50;99.90;;;;;;5063939;28;20025;-71
2023/03/18 03:55:53;;;;;;;17.08;8.35;;;10.50;99.90;;;;;;5065189;28;20108;-70
2023/03/18 03:58:19;;;;;;;17.95;8.02;;;10.50;99.90;;;;;;5064831;28;20104;-72
2023/03/18 04:00:45;;;;;;;22.10;8.70;;;10.50;99.90;;;;;;5064906;28;20021;-72
2023/03/18 04:03:10;;;;;;;15.82;8.05;;;10.50;99.90;;;;;;5064868;28;20468;-71
2023/03/18 04:05:37;;;;;;;18.17;8.55;;;10.50;99.90;;;;;;5063230;28;20085;-70
2023/03/18 04:08:03;;;;;;;17.95;8.90;;;10.50;99.90;;;;;;5063624;28;20466;-72
2023/03/18 04:10:29;;;;;;;18.05;9.13;;;10.50;99.90;;;;;;5063360;28;20039;-70
2023/03/18 04:12:55;;;;;;;21.88;9.65;;;10.50;99.90;;;;;;5064888;28;20048;-73
2023/03/18 04:15:21;;;;;;;20.35;9.10;;;10.50;99.90;;;;;;5064876;28;20519;-72
2023/03/18 04:17:48;;;;;;;28.20;9.80;;;10.60;99.90;;;;;;5062912;28;20081;-71
2023/03/18 04:20:15;;;;;;;17.73;9.98;;;10.50;99.90;;;;;;5064138;28;20095;-73
2023/03/18 04:22:42;;;;;;;17.40;10.18;;;10.50;99.90;;;;;;5063904;28;20028;-71
2023/03/18 04:25:09;;;;;;;22.10;11.07;;;10.60;99.90;;;;;;5064410;28;20053;-72
2023/03/18 04:27:36;;;;;;;22.35;11.15;;;10.60;99.90;;;;;;5062524;28;20086;-72
2023/03/18 04:30:03;;;;;;;25.40;10.27;;;10.60;99.90;;;;;;5064342;28;20041;-71
2023/03/18 04:32:29;;;;;;;24.05;11.20;;;10.70;99.90;;;;;;5064169;28;20040;-73
2023/03/18 04:34:55;;;;;;;22.58;10.70;;;10.70;99.90;;;;;;5063037;28;20398;-71
2023/03/18 04:37:21;;;;;;;21.02;10.82;;;10.70;99.90;;;;;;5064315;28;20025;-72
2023/03/18 04:39:47;;;;;;;24.67;10.55;;;10.80;99.90;;;;;;5062849;28;20466;-71
2023/03/18 04:42:13;;;;;;;21.88;10.10;;;10.80;99.90;;;;;;5063832;28;20036;-72
2023/03/18 04:44:38;;;;;;;23.42;10.27;;;10.80;99.90;;;;;;5063908;28;20029;-71
2023/03/18 04:47:04;;;;;;;20.23;10.00;;;10.80;99.90;;;;;;5062845;28;20053;-74
2023/03/18 04:49:30;;;;;;;23.77;10.48;;;10.80;99.90;;;;;;5063711;28;20032;-73
2023/03/18 04:51:56;;;;;;;24.15;10.75;;;10.90;99.90;;;;;;5063654;28;20040;-72
2023/03/18 04:54:21;;;;;;;24.27;10.38;;;10.90;99.90;;;;;;5064162;28;20025;-71
2023/03/18 04:56:47;;;;;;;22.95;9.85;;;10.90;99.90;;;;;;5063726;28;20060;-73
2023/03/18 04:59:12;;;;;;;20.55;10.13;;;10.90;99.90;;;;;;5063874;28;20025;-72
2023/03/18 05:01:38;;;;;;;25.15;10.45;;;10.90;99.90;;;;;;5063873;28;20021;-71
2023/03/18 05:04:04;;;;;;;19.70;10.90;;;10.90;99.90;;;;;;5063735;28;21884;-73
2023/03/18 05:06:32;;;;;;;19.67;10.07;;;10.90;99.90;;;;;;5062448;28;20021;-70
2023/03/18 05:08:59;;;;;;;22.70;9.98;;;10.90;99.90;;;;;;5063483;28;20041;-72
2023/03/18 05:11:26;;;;;;;22.55;11.10;;;10.90;99.90;;;;;;5063683;28;20052;-71
2023/03/18 05:13:51;;;;;;;20.95;10.57;;;10.90;99.90;;;;;;5064011;28;20032;-72
2023/03/18 05:16:17;;;;;;;22.42;11.40;;;11.00;99.90;;;;;;5063166;28;20400;-73
2023/03/18 05:18:43;;;;;;;24.13;11.75;;;11.00;99.90;;;;;;5063638;28;20051;-72
2023/03/18 05:21:09;;;;;;;17.63;10.20;;;10.90;99.90;;;;;;5061964;28;20116;-71
2023/03/18 05:23:35;;;;;;;22.40;11.30;;;11.00;99.90;;;;;;5063273;28;20040;-72
2023/03/18 05:26:01;;;;;;;29.92;11.15;;;11.00;99.90;;;;;;5063223;28;20045;-71
2023/03/18 05:28:26;;;;;;;21.13;11.10;;;11.00;99.90;;;;;;5062002;28;20041;-72
2023/03/18 05:30:52;;;;;;;23.95;11.05;;;11.00;99.90;;;;;;5063460;28;20025;-72
2023/03/18 05:33:18;;;;;;;24.55;11.25;;;10.90;99.90;;;;;;5062707;28;20021;-72
2023/03/18 05:35:44;;;;;;;25.20;11.27;;;10.90;99.90;;;;;;5062827;28;20029;-70
2023/03/18 05:38:10;;;;;;;27.95;11.20;;;10.90;99.90;;;;;;5063034;28;20036;-71
2023/03/18 05:40:36;;;;;;;22.15;11.60;;;10.90;99.90;;;;;;5061564;28;20017;-72
2023/03/18 05:43:03;;;;;;;20.52;11.00;;;10.80;99.90;;;;;;5063149;28;20071;-72
2023/03/18 05:45:28;;;;;;;21.23;10.88;;;10.80;99.90;;;;;;5062933;28;20032;-72
2023/03/18 05:47:54;;;;;;;26.48;11.55;;;10.80;99.90;;;;;;5062537;28;20096;-71
2023/03/18 05:50:34;;;;;;;21.25;11.65;;;10.80;99.90;;;;;;5062597;28;20068;-72
2023/03/18 05:53:01;;;;;;;23.67;12.00;;;10.80;99.90;;;;;;5062737;28;20037;-73
2023/03/18 05:55:28;;;;;;;23.83;11.80;;;10.70;99.90;;;;;;5062813;28;20090;-71
2023/03/18 05:57:57;;;;;;;23.20;11.95;;;10.70;99.90;;;;;;5062845;28;20071;-72
2023/03/18 06:00:23;;;;;;;20.70;11.52;;;10.70;99.90;;;;;;5062501;28;20391;-71
2023/03/18 06:02:51;;;;;;;24.80;11.90;;;10.70;99.90;;;;;;5058432;28;20045;-71
2023/03/18 06:05:17;;;;;;;24.10;12.07;;;10.70;99.90;;;;;;5059391;28;20025;-71
2023/03/18 06:07:44;;;;;;;23.40;11.88;;;10.70;99.90;;;;;;5062414;28;20025;-71
2023/03/18 06:10:11;;;;;;;25.00;12.40;;;10.70;99.90;;;;;;5061681;28;20025;-72
2023/03/18 06:12:37;;;;;;;21.83;11.80;;;10.70;99.90;;;;;;5062555;28;20033;-71
2023/03/18 06:15:05;;;;;;;23.20;12.82;;;10.70;99.90;;;;;;5060754;28;20139;-71
2023/03/18 06:17:31;;;;;;;23.98;13.23;;;10.70;99.90;;;;;;5061596;28;20021;-72
2023/03/18 06:19:57;;;;;;;30.02;12.85;;;10.80;99.90;;;;;;5060526;28;20021;-71
2023/03/18 06:22:24;;;;;;;22.83;12.25;;;10.80;99.90;;;;;;5059986;28;20510;-71
2023/03/18 06:24:49;;;;;;;21.90;11.85;;;10.80;99.90;;;;;;5061961;28;20044;-71
2023/03/18 06:27:15;;;;;;;31.13;12.68;;;10.80;99.90;;;;;;5062045;28;20126;-70
2023/03/18 06:29:40;;;;;;;26.77;13.02;;;10.80;99.90;;;;;;5061890;28;20057;-72
2023/03/18 06:32:07;;;;;;;30.60;13.55;;;10.80;99.90;;;;;;5058217;28;21537;-70
2023/03/18 06:34:34;;;;;;;31.65;13.48;;;10.80;99.90;;;;;;5059107;28;20025;-70
2023/03/18 06:37:00;;;;;;;26.27;12.95;;;10.90;99.90;;;;;;5054996;28;20036;-71
2023/03/18 06:39:27;;;;;;;22.33;12.98;;;10.90;99.90;;;;;;5059730;28;20033;-72
2023/03/18 06:41:53;;;;;;;25.27;12.57;;;10.90;99.90;;;;;;5061182;28;20359;-69
2023/03/18 06:44:20;;;;;;;27.63;13.88;;;10.90;99.90;;;;;;5061224;28;20021;-71
2023/03/18 06:46:46;;;;;;;24.17;12.98;;;11.00;99.90;;;;;;5061063;28;20017;-71
2023/03/18 06:49:11;;;;;;;25.83;13.20;;;10.90;99.90;;;;;;5060052;28;20071;-69
2023/03/18 06:51:37;;;;;;;27.45;13.88;;;11.00;99.90;;;;;;5061636;28;20036;-71
2023/03/18 06:54:04;;;;;;;25.90;12.85;;;11.00;99.90;;;;;;5061468;28;20025;-70
2023/03/18 06:56:32;;;;;;;21.20;11.90;;;11.00;99.90;;;;;;5058593;28;20021;-71
2023/03/18 06:58:59;;;;;;;28.05;12.63;;;11.00;99.90;;;;;;5055978;28;20437;-69
2023/03/18 07:01:28;;;;;;;26.50;13.90;;;11.00;99.90;;;;;;5056810;28;20033;-70
2023/03/18 07:03:54;;;;;;;26.13;13.52;;;11.00;99.90;;;;;;5059039;28;20059;-71
2023/03/18 07:06:20;;;;;;;26.77;13.95;;;11.00;99.90;;;;;;5059779;28;20021;-70
2023/03/18 07:08:49;;;;;;;27.95;13.73;;;11.10;99.90;;;;;;5060457;28;20049;-70
2023/03/18 07:11:15;;;;;;;27.55;13.52;;;11.00;99.90;;;;;;5059840;28;20697;-70
2023/03/18 07:13:41;;;;;;;29.10;15.35;;;11.00;99.90;;;;;;5061473;28;20044;-73
2023/03/18 07:16:07;;;;;;;28.52;14.85;;;10.90;99.90;;;;;;5061303;28;20048;-70
2023/03/18 07:18:32;;;;;;;31.30;15.48;;;10.90;99.90;;;;;;5060081;28;20079;-71
2023/03/18 07:21:01;;;;;;;30.50;15.18;;;10.90;99.90;;;;;;5059257;28;20021;-73
2023/03/18 07:23:29;;;;;;;29.88;15.95;;;10.80;99.90;;;;;;5057964;28;20112;-73
2023/03/18 07:25:56;;;;;;;27.77;14.88;;;10.80;99.90;;;;;;5057913;28;20067;-72
2023/03/18 07:28:22;;;;;;;32.28;15.70;;;10.80;99.90;;;;;;5055823;28;20744;-69
2023/03/18 07:30:49;;;;;;;32.75;16.10;;;10.80;99.90;;;;;;5052046;28;20033;-70
2023/03/18 07:33:18;;;;;;;33.38;16.70;;;10.90;99.90;;;;;;5056197;28;20143;-72
2023/03/18 07:35:47;;;;;;;32.67;16.75;;;10.90;99.90;;;;;;5053165;28;20089;-71
2023/03/18 07:38:13;;;;;;;30.48;16.00;;;10.90;99.90;;;;;;5054950;28;20025;-71
2023/03/18 07:40:38;;;;;;;30.00;15.93;;;10.90;99.90;;;;;;5058955;28;20055;-72
2023/03/18 07:43:04;;;;;;;31.35;16.23;;;10.90;99.90;;;;;;5061075;28;20025;-72
2023/03/18 07:45:32;;;;;;;40.17;16.15;;;10.90;99.90;;;;;;5061312;28;20024;-72
2023/03/18 07:48:01;;;;;;;31.52;16.92;;;10.90;99.90;;;;;;5061037;28;20033;-72
2023/03/18 07:50:26;;;;;;;34.92;17.58;;;11.00;99.90;;;;;;5061430;28;20029;-70
2023/03/18 07:52:52;;;;;;;32.33;16.70;;;11.00;99.90;;;;;;5059845;28;20093;-69
2023/03/18 07:55:19;;;;;;;28.10;16.08;;;11.00;99.90;;;;;;5060230;28;20048;-71
2023/03/18 07:57:44;;;;;;;32.03;15.70;;;11.00;99.90;;;;;;5060389;28;20009;-70
2023/03/18 08:00:12;;;;;;;32.38;15.77;;;11.00;99.90;;;;;;5056681;28;20028;-70
2023/03/18 08:02:39;;;;;;;31.13;15.05;;;11.10;99.90;;;;;;5059334;28;20096;-69
2023/03/18 08:05:05;;;;;;;32.33;16.40;;;11.10;99.90;;;;;;5057782;28;20533;-70
2023/03/18 08:07:32;;;;;;;29.85;16.10;;;11.10;99.90;;;;;;5054340;28;20041;-70
2023/03/18 08:09:58;;;;;;;35.65;16.92;;;11.20;99.90;;;;;;5053148;28;20048;-70
2023/03/18 08:12:24;;;;;;;33.58;16.08;;;11.20;99.90;;;;;;5063705;28;20478;-70
2023/03/18 08:14:50;;;;;;;31.40;16.98;;;11.20;99.90;;;;;;5059000;28;20048;-71
2023/03/18 08:17:15;;;;;;;73.13;37.33;;;11.30;99.90;;;;;;5063969;28;20029;-70
2023/03/18 08:19:41;;;;;;;42.03;26.10;;;11.30;99.90;;;;;;5060769;28;20033;-70
2023/03/18 08:22:08;;;;;;;39.95;20.58;;;11.30;99.90;;;;;;5060670;28;20025;-69
2023/03/18 08:24:36;;;;;;;33.78;16.65;;;11.40;99.90;;;;;;5063220;28;20080;-70
2023/03/18 08:27:02;;;;;;;32.65;18.38;;;11.40;99.90;;;;;;5064540;28;20025;-70
2023/03/18 08:29:27;;;;;;;31.45;16.88;;;11.40;99.90;;;;;;5063465;28;20409;-69
2023/03/18 08:31:53;;;;;;;31.42;16.08;;;11.40;99.90;;;;;;5063158;28;20035;-70
2023/03/18 08:34:19;;;;;;;30.90;16.92;;;11.50;99.90;;;;;;5064103;28;20413;-71
2023/03/18 08:36:45;;;;;;;31.33;17.25;;;11.50;99.90;;;;;;5064066;28;20033;-71
2023/03/18 08:39:10;;;;;;;34.15;18.17;;;11.60;99.90;;;;;;5062654;28;20048;-70
2023/03/18 08:41:36;;;;;;;33.25;17.80;;;11.60;99.90;;;;;;5063932;28;20021;-70
2023/03/18 08:44:05;;;;;;;31.70;17.98;;;11.60;99.90;;;;;;5064354;28;20413;-71
2023/03/18 08:46:31;;;;;;;30.77;17.33;;;11.70;99.90;;;;;;5063870;28;20084;-69
2023/03/18 08:48:58;;;;;;;30.58;16.73;;;11.70;99.90;;;;;;5063365;28;20048;-70
2023/03/18 08:51:24;;;;;;;30.15;17.15;;;11.70;99.90;;;;;;5063062;28;20029;-70
2023/03/18 08:53:50;;;;;;;139.23;49.65;;;11.70;99.90;;;;;;5063401;28;20025;-70
2023/03/18 08:56:19;;;;;;;51.90;23.95;;;11.70;99.90;;;;;;5062935;28;20053;-71
2023/03/18 08:58:44;;;;;;;35.78;18.92;;;11.80;99.90;;;;;;5061511;28;20029;-71
2023/03/18 09:01:10;;;;;;;248.65;89.35;;;11.80;99.90;;;;;;5062114;28;20108;-69
2023/03/18 09:03:36;;;;;;;57.70;25.45;;;11.80;99.90;;;;;;5062584;28;21310;-70
2023/03/18 09:06:02;;;;;;;38.15;17.95;;;11.90;99.90;;;;;;5062056;28;20025;-73
2023/03/18 09:08:29;;;;;;;35.65;19.23;;;12.00;99.90;;;;;;5063820;28;20498;-71
2023/03/18 09:10:56;;;;;;;35.53;18.33;;;12.10;99.90;;;;;;5062115;28;20037;-70
2023/03/18 09:13:25;;;;;;;28.13;16.52;;;12.20;99.90;;;;;;5061992;28;20029;-70
2023/03/18 09:15:51;;;;;;;31.90;16.52;;;12.30;99.90;;;;;;5063103;28;20036;-71
2023/03/18 09:18:17;;;;;;;34.67;16.23;;;12.40;99.90;;;;;;5063639;28;20465;-70
2023/03/18 09:20:45;;;;;;;24.83;15.73;;;12.60;99.90;;;;;;5048160;28;20047;-72
2023/03/18 09:23:12;;;;;;;28.48;15.07;;;12.60;99.90;;;;;;5050892;28;20167;-70
2023/03/18 09:25:39;;;;;;;27.02;14.85;;;12.70;99.90;;;;;;5059113;28;20074;-70
2023/03/18 09:28:05;;;;;;;32.97;16.35;;;12.70;99.90;;;;;;5060365;28;20917;-70
2023/03/18 09:30:32;;;;;;;33.22;15.48;;;12.80;99.90;;;;;;5060002;28;20021;-71
2023/03/18 09:32:58;;;;;;;25.58;14.75;;;13.00;99.90;;;;;;5058534;28;20055;-71
2023/03/18 09:35:24;;;;;;;26.23;13.95;;;13.40;99.90;;;;;;5061972;28;21288;-70
2023/03/18 09:37:50;;;;;;;24.42;13.98;;;13.90;99.90;;;;;;5061770;28;20078;-69
2023/03/18 09:43:45;;;;;;;21.50;13.70;;;14.70;99.90;;;;;;5097230;27;20403;-69
2023/03/18 09:46:25;;;;;;;26.17;12.38;;;15.10;99.90;;;;;;5097973;28;20128;-71
2023/03/18 09:49:32;;;;;;;22.40;13.55;;;15.30;99.90;;;;;;5092378;28;20031;-72
2023/03/18 09:52:15;;;;;;;23.83;13.00;;;15.50;99.90;;;;;;5087470;28;20070;-69
2023/03/18 09:55:01;;;;;;;26.92;13.90;;;15.70;99.90;;;;;;5095582;28;20035;-70
2023/03/18 09:57:35;;;;;;;26.20;16.48;;;15.70;99.90;;;;;;5095925;28;20092;-70
2023/03/18 10:00:16;;;;;;;30.00;16.77;;;15.90;99.90;;;;;;5095972;28;20032;-70
2023/03/18 10:02:56;;;;;;;31.08;18.42;;;16.00;99.90;;;;;;5095652;28;20032;-69
2023/03/18 10:05:34;;;;;;;33.92;19.73;;;16.20;99.90;;;;;;5097090;28;20035;-71
2023/03/18 10:08:10;;;;;;;31.75;19.95;;;16.30;99.90;;;;;;5096342;28;20063;-69
2023/03/18 10:10:40;;;;;;;34.97;19.48;;;16.50;99.90;;;;;;5096676;28;20032;-70
2023/03/18 10:13:21;;;;;;;34.92;20.10;;;16.80;99.90;;;;;;5097214;28;20022;-72
2023/03/18 10:15:52;;;;;;;33.20;19.67;;;17.00;99.90;;;;;;5097100;28;20016;-69
2023/03/18 10:18:36;;;;;;;33.40;20.30;;;17.30;99.90;;;;;;5095904;28;20016;-68
2023/03/18 10:21:30;;;;;;;35.20;20.55;;;17.40;99.90;;;;;;5095903;28;20032;-71
2023/03/18 10:24:14;;;;;;;31.08;18.75;;;17.60;99.90;;;;;;5097061;28;20032;-72
2023/03/18 10:27:00;;;;;;;34.58;19.90;;;17.50;99.90;;;;;;5096936;28;20035;-70
2023/03/18 10:29:40;;;;;;;30.00;19.88;;;17.30;99.90;;;;;;5097644;28;20370;-69
2023/03/18 10:32:09;;;;;;;34.80;20.83;;;17.20;99.90;;;;;;5096732;28;20016;-68
2023/03/18 10:35:08;;;;;;;34.05;19.83;;;17.40;99.90;;;;;;5095076;28;20488;-70
2023/03/18 10:37:54;;;;;;;33.42;20.45;;;17.30;99.90;;;;;;5096294;28;20046;-72
2023/03/18 10:40:23;;;;;;;30.75;19.63;;;17.10;99.90;;;;;;5095302;28;20065;-69
2023/03/18 10:42:50;;;;;;;34.08;21.50;;;16.90;99.90;;;;;;5092457;28;20125;-68
2023/03/18 10:45:27;;;;;;;35.00;21.40;;;16.80;99.90;;;;;;5094904;28;20036;-70
2023/03/18 10:48:04;;;;;;;31.27;19.77;;;16.70;99.90;;;;;;5094357;28;20105;-70
2023/03/18 10:50:32;;;;;;;34.95;19.98;;;16.60;99.90;;;;;;5093094;28;20111;-73
2023/03/18 10:53:22;;;;;;;39.88;21.45;;;16.60;99.90;;;;;;5093282;28;20031;-69
2023/03/18 10:56:10;;;;;;;36.10;21.83;;;16.50;99.90;;;;;;5082227;28;20036;-69
2023/03/18 10:58:41;;;;;;;34.55;20.85;;;16.60;99.90;;;;;;5080318;28;20115;-69
2023/03/18 11:01:13;;;;;;;41.38;21.60;;;16.50;99.90;;;;;;5082487;28;20051;-70
2023/03/18 11:03:50;;;;;;;41.45;22.42;;;16.60;99.90;;;;;;5082990;28;20021;-71
2023/03/18 11:06:24;;;;;;;37.42;23.70;;;16.60;99.90;;;;;;5083729;28;20036;-69
2023/03/18 11:09:01;;;;;;;36.25;21.92;;;16.70;99.90;;;;;;5083821;28;20028;-71
2023/03/18 11:11:33;;;;;;;39.20;23.75;;;16.80;99.90;;;;;;5083338;28;20033;-70
2023/03/18 11:14:02;;;;;;;41.70;22.67;;;16.80;99.90;;;;;;5078658;28;20033;-72
2023/03/18 11:17:04;;;;;;;40.20;21.02;;;17.00;99.90;;;;;;5077887;28;20043;-70
2023/03/18 11:19:37;;;;;;;34.78;20.00;;;17.00;99.90;;;;;;5081162;28;20040;-71
2023/03/18 11:22:09;;;;;;;40.03;21.67;;;17.00;99.90;;;;;;5082838;28;20038;-69
2023/03/18 11:24:42;;;;;;;35.90;22.10;;;17.00;99.90;;;;;;5083454;28;20028;-70
2023/03/18 11:27:17;;;;;;;39.97;22.85;;;17.10;99.90;;;;;;5082097;28;20035;-69
2023/03/18 11:29:45;;;;;;;;;;;17.00;99.90;;;;;;5084077;28;20037;-70
2023/03/18 11:32:27;;;;;;;43.83;24.30;;;16.70;99.90;;;;;;5083360;28;19936;-69
2023/03/18 11:34:59;;;;;;;42.33;25.73;;;16.60;99.90;;;;;;5080726;28;20020;-69
2023/03/18 11:37:31;;;;;;;39.22;24.10;;;16.70;99.90;;;;;;5082078;28;20385;-69
2023/03/18 11:40:17;;;;;;;39.72;24.33;;;16.80;99.90;;;;;;5080648;28;20194;-70
2023/03/18 11:42:45;;;;;;;41.13;24.38;;;17.00;99.90;;;;;;5082482;28;20052;-71
2023/03/18 11:45:51;;;;;;;42.47;24.25;;;17.10;99.90;;;;;;5083350;28;20023;-71
2023/03/18 11:48:29;;;;;;;46.08;26.00;;;17.20;99.90;;;;;;5080457;28;20497;-69
2023/03/18 11:51:10;;;;;;;43.53;25.55;;;17.10;99.90;;;;;;5072996;28;20036;-69
2023/03/18 11:54:14;;;;;;;46.65;26.65;;;17.00;99.90;;;;;;5079922;28;20085;-70
2023/03/18 11:56:58;;;;;;;42.65;26.98;;;16.90;99.90;;;;;;5081214;28;20025;-71
2023/03/18 11:59:42;;;;;;;42.30;25.70;;;16.80;99.90;;;;;;5079763;28;20040;-69
2023/03/18 12:02:23;;;;;;;47.28;26.90;;;16.80;99.90;;;;;;5081225;28;20036;-69
2023/03/18 12:05:23;;;;;;;44.45;25.85;;;17.00;99.90;;;;;;5081221;28;20063;-70
2023/03/18 12:07:53;;;;;;;42.25;25.48;;;17.30;99.90;;;;;;5090120;28;20076;-71
2023/03/18 12:10:19;;;;;;;38.67;25.10;;;17.60;99.90;;;;;;5080381;28;20032;-70
2023/03/18 12:13:25;;;;;;;47.83;26.77;;;17.80;99.90;;;;;;5081578;28;20347;-71
2023/03/18 12:16:06;;;;;;;38.92;25.23;;;17.80;99.90;;;;;;5080325;28;20137;-72
2023/03/18 12:18:53;;;;;;;42.15;26.27;;;17.60;99.90;;;;;;5080245;28;20039;-71
2023/03/18 12:21:51;;;;;;;40.50;25.38;;;17.60;99.90;;;;;;5078522;28;20079;-69
2023/03/18 12:24:35;;;;;;;39.53;26.27;;;18.00;99.90;;;;;;5082463;28;21012;-67
2023/03/18 12:27:18;;;;;;;36.63;24.40;;;18.40;99.90;;;;;;5079423;28;20032;-71
2023/03/18 12:29:56;;;;;;;39.33;24.58;;;18.70;99.90;;;;;;5081188;28;20059;-70
2023/03/18 12:32:22;;;;;;;40.90;24.20;;;19.10;99.90;;;;;;5082308;28;20112;-71
2023/03/18 12:35:11;;;;;;;37.47;22.95;;;19.50;99.90;;;;;;5080589;28;20056;-70
2023/03/18 12:37:56;;;;;;;37.55;23.48;;;20.00;99.90;;;;;;5080438;28;20031;-71
2023/03/18 12:40:34;;;;;;;32.97;22.02;;;20.60;99.90;;;;;;5078698;28;20082;-72
2023/03/18 12:43:23;;;;;;;33.53;21.70;;;20.80;99.90;;;;;;5081748;28;20048;-69
2023/03/18 12:45:52;;;;;;;35.17;22.83;;;20.70;99.90;;;;;;5081213;28;20063;-70
2023/03/18 12:48:22;;;;;;;37.55;22.17;;;20.50;99.90;;;;;;5080573;28;20056;-71